Time;durP1;ratioP1;P1;durP2;ratioP2;P2;SDS_P1;SDS_P2;PMS_P1;PMS_P2;Temp;Humidity;BMP_temperature;BMP_pressure;BME280_temperature;BME280_humidity;BME280_pressure;Samples;Min_cycle;Max_cycle;Signal;HPM_P1;HPM_P2
2023/07/04 00:01:12;;;;;;;8.60;3.00;;;14.60;99.90;;;;;;5056879;28;20040;-68
2023/07/04 00:03:43;;;;;;;7.70;3.07;;;14.70;99.90;;;;;;5045398;28;20126;-68
2023/07/04 00:06:17;;;;;;;7.82;2.78;;;14.70;99.90;;;;;;5052039;28;20286;-68
2023/07/04 00:08:43;;;;;;;8.52;2.90;;;14.70;99.90;;;;;;5061879;28;20033;-68
2023/07/04 00:11:09;;;;;;;10.25;3.20;;;14.70;99.90;;;;;;5054760;28;20041;-68
2023/07/04 00:13:37;;;;;;;11.77;3.60;;;14.70;99.90;;;;;;5050949;28;20033;-68
2023/07/04 00:16:06;;;;;;;8.63;3.13;;;14.70;99.90;;;;;;5049962;28;20052;-68
2023/07/04 00:18:31;;;;;;;12.32;3.38;;;14.70;99.90;;;;;;5061167;28;20029;-68
2023/07/04 00:20:59;;;;;;;13.40;3.25;;;14.70;99.90;;;;;;5059858;28;20413;-68
2023/07/04 00:23:33;;;;;;;12.98;3.45;;;14.70;99.90;;;;;;5063878;28;20056;-68
2023/07/04 00:26:00;;;;;;;10.30;3.60;;;14.70;99.90;;;;;;5047909;28;20040;-68
2023/07/04 00:28:26;;;;;;;8.80;3.20;;;14.60;99.90;;;;;;5049615;28;20041;-68
2023/07/04 00:30:54;;;;;;;6.88;3.30;;;14.60;99.90;;;;;;5060108;28;20401;-68
2023/07/04 00:33:27;;;;;;;8.63;2.97;;;14.60;99.90;;;;;;5061258;28;20132;-68
2023/07/04 00:36:05;;;;;;;11.65;3.38;;;14.60;99.90;;;;;;5060099;28;20039;-68
2023/07/04 00:38:35;;;;;;;8.65;2.90;;;14.60;99.90;;;;;;5046105;28;20040;-68
2023/07/04 00:41:03;;;;;;;16.83;3.55;;;14.60;99.90;;;;;;5052558;28;20041;-68
2023/07/04 00:43:45;;;;;;;10.50;3.88;;;14.60;99.90;;;;;;5067519;28;20047;-68
2023/07/04 00:46:15;;;;;;;10.50;3.58;;;14.60;99.90;;;;;;5061810;28;20056;-68
2023/07/04 00:48:44;;;;;;;9.43;2.95;;;14.60;99.90;;;;;;5065256;28;20437;-68
2023/07/04 00:51:21;;;;;;;9.80;3.45;;;14.60;99.90;;;;;;5056373;28;20075;-68
2023/07/04 00:53:53;;;;;;;11.40;3.92;;;14.60;99.90;;;;;;5054220;28;20041;-68
2023/07/04 00:56:25;;;;;;;8.45;3.25;;;14.60;99.90;;;;;;5050025;28;20047;-68
2023/07/04 00:58:56;;;;;;;9.93;3.10;;;14.60;99.90;;;;;;5064094;28;20042;-68
2023/07/04 01:01:22;;;;;;;10.05;3.65;;;14.60;99.90;;;;;;5057882;28;20028;-68
2023/07/04 01:03:48;;;;;;;10.82;3.35;;;14.50;99.90;;;;;;5054915;28;20505;-68
2023/07/04 01:06:51;;;;;;;8.40;3.20;;;14.50;99.90;;;;;;5043904;28;20040;-68
2023/07/04 01:09:18;;;;;;;12.05;3.70;;;14.50;99.90;;;;;;5046876;28;20051;-68
2023/07/04 01:11:48;;;;;;;11.23;3.40;;;14.50;99.90;;;;;;5054309;28;20037;-68
2023/07/04 01:14:22;;;;;;;10.75;3.65;;;14.40;99.90;;;;;;5045103;28;20399;-68
2023/07/04 01:16:49;;;;;;;10.35;3.47;;;14.40;99.90;;;;;;5050556;28;20102;-68
2023/07/04 01:19:24;;;;;;;8.55;3.25;;;14.40;99.90;;;;;;5049354;28;20036;-68
2023/07/04 01:21:56;;;;;;;8.93;3.53;;;14.30;99.90;;;;;;5047538;28;20037;-68
2023/07/04 01:24:37;;;;;;;10.45;3.40;;;14.30;99.90;;;;;;5048799;28;20037;-68
2023/07/04 01:27:03;;;;;;;7.22;3.20;;;14.40;99.90;;;;;;5058343;28;20037;-68
2023/07/04 01:29:30;;;;;;;9.18;3.20;;;14.40;99.90;;;;;;5065910;28;20544;-68
2023/07/04 01:31:57;;;;;;;8.48;3.67;;;14.30;99.90;;;;;;5050110;28;20047;-68
2023/07/04 01:34:23;;;;;;;9.30;3.40;;;14.30;99.90;;;;;;5052559;28;20071;-68
2023/07/04 01:36:49;;;;;;;9.70;3.45;;;14.30;99.90;;;;;;5055060;28;20064;-68
2023/07/04 01:39:15;;;;;;;10.20;3.58;;;14.30;99.90;;;;;;5063527;28;20032;-68
2023/07/04 01:41:45;;;;;;;9.68;3.60;;;14.30;99.90;;;;;;5057910;28;20037;-68
2023/07/04 01:44:12;;;;;;;10.27;3.85;;;14.20;99.90;;;;;;5049748;28;20111;-68
2023/07/04 01:46:38;;;;;;;10.95;3.90;;;14.20;99.90;;;;;;5051131;28;20091;-69
2023/07/04 01:49:04;;;;;;;10.90;3.60;;;14.20;99.90;;;;;;5055404;28;20479;-68
2023/07/04 01:51:40;;;;;;;9.50;3.42;;;14.10;99.90;;;;;;5058427;28;20033;-68
2023/07/04 01:54:08;;;;;;;13.43;3.70;;;14.10;99.90;;;;;;5063681;28;20414;-68
2023/07/04 01:56:37;;;;;;;12.23;3.78;;;14.10;99.90;;;;;;5063396;28;20048;-68
2023/07/04 01:59:02;;;;;;;10.40;3.63;;;14.10;99.90;;;;;;5050907;28;20033;-68
2023/07/04 02:01:28;;;;;;;10.32;3.38;;;14.10;99.90;;;;;;5050472;28;20040;-68
2023/07/04 02:03:54;;;;;;;9.82;3.47;;;14.10;99.90;;;;;;5053212;28;20033;-68
2023/07/04 02:06:20;;;;;;;8.60;3.90;;;14.00;99.90;;;;;;5053280;28;20035;-68
2023/07/04 02:08:46;;;;;;;11.10;3.53;;;14.10;99.90;;;;;;5058219;28;20040;-68
2023/07/04 02:11:12;;;;;;;10.50;3.38;;;14.00;99.90;;;;;;5052512;28;20024;-68
2023/07/04 02:13:38;;;;;;;11.10;3.50;;;14.00;99.90;;;;;;5050966;28;20072;-68
2023/07/04 02:16:04;;;;;;;9.98;3.20;;;14.00;99.90;;;;;;5059628;28;20047;-68
2023/07/04 02:18:30;;;;;;;12.00;3.58;;;14.00;99.90;;;;;;5052436;28;20036;-69
2023/07/04 02:20:56;;;;;;;12.25;3.65;;;13.90;99.90;;;;;;5052418;28;20036;-68
2023/07/04 02:23:21;;;;;;;8.10;3.90;;;13.90;99.90;;;;;;5059190;28;20037;-68
2023/07/04 02:25:48;;;;;;;7.03;3.83;;;13.90;99.90;;;;;;5052794;28;20149;-68
2023/07/04 02:28:14;;;;;;;10.13;3.47;;;13.90;99.90;;;;;;5041109;28;20546;-68
2023/07/04 02:30:40;;;;;;;11.25;3.88;;;13.90;99.90;;;;;;5060278;28;20029;-68
2023/07/04 02:33:06;;;;;;;10.65;3.72;;;13.80;99.90;;;;;;5054602;28;20114;-68
2023/07/04 02:35:32;;;;;;;8.73;3.40;;;13.80;99.90;;;;;;5056138;28;20029;-68
2023/07/04 02:37:57;;;;;;;10.20;3.75;;;13.80;99.90;;;;;;5052354;28;20033;-68
2023/07/04 02:40:23;;;;;;;8.95;3.58;;;13.80;99.90;;;;;;5055905;28;20044;-68
2023/07/04 02:42:49;;;;;;;12.45;3.90;;;13.80;99.90;;;;;;5046309;28;20120;-68
2023/07/04 02:45:15;;;;;;;11.85;4.15;;;13.80;99.90;;;;;;5052144;28;20155;-68
2023/07/04 02:47:41;;;;;;;10.10;3.97;;;13.70;99.90;;;;;;5051171;28;20025;-68
2023/07/04 02:50:07;;;;;;;11.55;4.18;;;13.70;99.90;;;;;;5052052;28;20032;-68
2023/07/04 02:52:32;;;;;;;13.10;3.90;;;13.70;99.90;;;;;;5050685;28;20402;-68
2023/07/04 02:54:58;;;;;;;11.77;4.07;;;13.70;99.90;;;;;;5047973;28;20108;-68
2023/07/04 02:57:24;;;;;;;8.27;3.97;;;13.60;99.90;;;;;;5046122;28;20498;-68
2023/07/04 02:59:49;;;;;;;11.32;3.90;;;13.60;99.90;;;;;;5050397;28;20048;-68
2023/07/04 03:02:15;;;;;;;8.38;3.42;;;13.60;99.90;;;;;;5051042;28;20147;-68
2023/07/04 03:04:41;;;;;;;10.25;3.80;;;13.60;99.90;;;;;;5058591;28;20051;-68
2023/07/04 03:07:07;;;;;;;10.32;3.75;;;13.60;99.90;;;;;;5058717;28;20311;-68
2023/07/04 03:09:32;;;;;;;11.15;4.05;;;13.60;99.90;;;;;;5050365;28;20057;-68
2023/07/04 03:11:58;;;;;;;10.35;3.63;;;13.60;99.90;;;;;;5058263;28;20118;-68
2023/07/04 03:14:25;;;;;;;14.25;3.67;;;13.70;99.90;;;;;;5049113;28;20043;-68
2023/07/04 03:16:51;;;;;;;10.63;3.88;;;13.60;99.90;;;;;;5050525;28;20064;-68
2023/07/04 03:19:16;;;;;;;10.32;4.05;;;13.60;99.90;;;;;;5063862;28;20116;-68
2023/07/04 03:21:42;;;;;;;7.63;4.47;;;13.60;99.90;;;;;;5048022;28;20121;-68
2023/07/04 03:24:08;;;;;;;12.60;4.22;;;13.60;99.90;;;;;;5051057;28;20068;-68
2023/07/04 03:26:34;;;;;;;8.88;3.90;;;13.70;99.90;;;;;;5062257;28;20516;-68
2023/07/04 03:29:00;;;;;;;13.30;4.28;;;13.70;99.90;;;;;;5053557;28;20041;-69
2023/07/04 03:31:26;;;;;;;11.65;4.60;;;13.70;99.90;;;;;;5062475;28;20060;-68
2023/07/04 03:33:52;;;;;;;17.05;4.40;;;13.70;99.90;;;;;;5052004;28;20064;-68
2023/07/04 03:36:18;;;;;;;21.13;4.80;;;13.70;99.90;;;;;;5047965;28;20037;-68
2023/07/04 03:38:44;;;;;;;13.50;4.70;;;13.70;99.90;;;;;;5048503;28;20043;-68
2023/07/04 03:41:09;;;;;;;11.45;4.43;;;13.70;99.90;;;;;;5060335;28;20032;-69
2023/07/04 03:43:35;;;;;;;15.27;4.95;;;13.70;99.90;;;;;;5055463;28;20390;-68
2023/07/04 03:46:01;;;;;;;16.90;5.00;;;13.80;99.90;;;;;;5051125;28;20081;-68
2023/07/04 03:48:26;;;;;;;11.60;4.50;;;13.70;99.90;;;;;;5048945;28;20083;-68
2023/07/04 03:50:52;;;;;;;11.90;4.55;;;13.80;99.90;;;;;;5048296;28;20087;-68
2023/07/04 03:53:17;;;;;;;11.48;5.00;;;13.80;99.90;;;;;;5054241;28;20052;-68
2023/07/04 03:55:43;;;;;;;12.90;4.65;;;13.80;99.90;;;;;;5048565;28;20120;-68
2023/07/04 03:58:08;;;;;;;11.63;4.60;;;13.80;99.90;;;;;;5048795;28;20028;-68
2023/07/04 04:00:34;;;;;;;16.25;5.20;;;13.80;99.90;;;;;;5056571;28;20040;-68
2023/07/04 04:03:00;;;;;;;13.05;4.90;;;13.80;99.90;;;;;;5048434;28;20041;-68
2023/07/04 04:05:27;;;;;;;12.80;5.10;;;13.80;99.90;;;;;;5047323;28;20061;-68
2023/07/04 04:07:53;;;;;;;13.23;4.75;;;13.80;99.90;;;;;;5052960;28;20041;-68
2023/07/04 04:10:19;;;;;;;9.20;4.03;;;13.80;99.90;;;;;;5048292;28;20041;-68
2023/07/04 04:12:45;;;;;;;9.63;4.57;;;13.80;99.90;;;;;;5053554;28;20398;-68
2023/07/04 04:15:11;;;;;;;11.65;4.75;;;13.80;99.90;;;;;;5044128;28;20033;-68
2023/07/04 04:17:37;;;;;;;17.23;4.93;;;13.80;99.90;;;;;;5053512;28;20490;-68
2023/07/04 04:20:06;;;;;;;11.32;4.25;;;13.80;99.90;;;;;;5052414;28;20085;-68
2023/07/04 04:22:35;;;;;;;12.75;4.40;;;13.80;99.90;;;;;;5054779;28;20572;-68
2023/07/04 04:25:00;;;;;;;8.88;4.45;;;13.80;99.90;;;;;;5051824;28;20040;-68
2023/07/04 04:27:30;;;;;;;8.40;3.97;;;13.80;99.90;;;;;;5054638;28;20032;-68
2023/07/04 04:29:56;;;;;;;13.30;4.65;;;13.80;99.90;;;;;;5051923;28;20047;-68
2023/07/04 04:32:22;;;;;;;12.18;4.65;;;13.90;99.90;;;;;;5054688;28;20403;-68
2023/07/04 04:34:48;;;;;;;9.73;4.45;;;13.90;99.90;;;;;;5052335;28;20037;-68
2023/07/04 04:37:13;;;;;;;10.65;4.40;;;13.90;99.90;;;;;;5066040;28;20036;-68
2023/07/04 04:39:39;;;;;;;17.23;4.85;;;13.90;99.90;;;;;;5065595;28;20414;-68
2023/07/04 04:42:05;;;;;;;15.18;4.72;;;13.90;99.90;;;;;;5052236;28;20044;-68
2023/07/04 04:44:31;;;;;;;11.15;4.28;;;13.90;99.90;;;;;;5050298;28;20542;-68
2023/07/04 04:46:56;;;;;;;6.35;3.63;;;14.00;99.90;;;;;;5064164;22;20032;-59
2023/07/04 04:49:22;;;;;;;11.48;3.92;;;14.00;99.90;;;;;;5052100;28;20033;-59
2023/07/04 04:51:51;;;;;;;9.13;3.95;;;14.00;99.90;;;;;;5053406;28;20039;-59
2023/07/04 04:54:17;;;;;;;13.35;3.88;;;14.00;99.90;;;;;;5050817;28;20043;-59
2023/07/04 04:56:44;;;;;;;10.18;3.72;;;14.10;99.90;;;;;;5059269;28;20461;-59
2023/07/04 04:59:11;;;;;;;5.95;3.45;;;14.10;99.90;;;;;;5048954;28;20107;-59
2023/07/04 05:01:37;;;;;;;7.18;3.25;;;14.00;99.90;;;;;;5051165;28;20559;-59
2023/07/04 05:04:04;;;;;;;9.05;3.13;;;14.10;99.90;;;;;;5055925;28;20550;-59
2023/07/04 05:06:30;;;;;;;10.18;3.72;;;14.00;99.90;;;;;;5050732;28;20398;-59
2023/07/04 05:08:56;;;;;;;10.10;4.05;;;14.10;99.90;;;;;;5051823;28;20040;-59
2023/07/04 05:11:22;;;;;;;9.40;3.22;;;14.10;99.90;;;;;;5057513;28;20035;-59
2023/07/04 05:13:49;;;;;;;8.93;3.25;;;14.10;99.90;;;;;;5054032;28;20111;-59
2023/07/04 05:16:20;;;;;;;8.27;3.33;;;14.20;99.90;;;;;;5050936;28;20060;-59
2023/07/04 05:18:46;;;;;;;8.10;3.10;;;14.10;99.90;;;;;;5045507;28;20029;-59
2023/07/04 05:21:14;;;;;;;8.77;2.95;;;14.20;99.90;;;;;;5054892;28;20089;-59
2023/07/04 05:23:42;;;;;;;7.90;2.70;;;14.20;99.90;;;;;;5070281;28;20123;-59
2023/07/04 05:26:33;;;;;;;7.53;2.83;;;14.20;99.90;;;;;;5064014;28;20033;-59
2023/07/04 05:28:59;;;;;;;8.23;2.63;;;14.20;99.90;;;;;;5060059;28;20051;-59
2023/07/04 05:31:27;;;;;;;8.02;2.58;;;14.20;99.90;;;;;;5046400;28;20033;-59
2023/07/04 05:33:54;;;;;;;6.03;2.40;;;14.20;99.90;;;;;;5044766;28;20040;-59
2023/07/04 05:36:22;;;;;;;5.95;2.28;;;14.20;99.90;;;;;;5049825;28;20033;-59
2023/07/04 05:38:52;;;;;;;7.57;2.28;;;14.30;99.90;;;;;;5052477;28;20029;-59
2023/07/04 05:41:20;;;;;;;10.77;3.22;;;14.30;99.90;;;;;;5052384;28;20041;-59
2023/07/04 05:43:47;;;;;;;7.65;2.42;;;14.30;99.90;;;;;;5052878;28;20514;-59
2023/07/04 05:46:14;;;;;;;8.68;2.65;;;14.30;99.90;;;;;;5051523;28;20040;-59
2023/07/04 05:48:41;;;;;;;8.18;2.60;;;14.40;99.90;;;;;;5050814;28;20549;-59
2023/07/04 05:51:09;;;;;;;6.63;2.35;;;14.40;99.90;;;;;;5052570;28;20386;-59
2023/07/04 05:53:46;;;;;;;5.43;2.00;;;14.40;99.90;;;;;;5052498;28;20063;-59
2023/07/04 05:56:19;;;;;;;7.32;2.50;;;14.50;99.90;;;;;;5052476;28;20033;-59
2023/07/04 05:58:47;;;;;;;8.00;2.75;;;14.50;99.90;;;;;;5051150;28;20039;-59
2023/07/04 06:01:14;;;;;;;9.15;2.65;;;14.60;99.90;;;;;;5038085;28;20456;-59
2023/07/04 06:03:41;;;;;;;8.50;2.30;;;14.60;99.90;;;;;;5046262;28;20482;-59
2023/07/04 06:06:15;;;;;;;3.92;2.22;;;14.70;99.90;;;;;;5049531;28;20079;-59
2023/07/04 06:08:41;;;;;;;7.90;2.35;;;14.70;99.90;;;;;;5052632;28;20075;-59
2023/07/04 06:11:08;;;;;;;7.53;2.53;;;14.70;99.90;;;;;;5044924;28;20108;-59
2023/07/04 06:13:33;;;;;;;6.32;2.40;;;14.80;99.90;;;;;;5047426;28;20048;-59
2023/07/04 06:16:02;;;;;;;4.53;2.03;;;14.80;99.90;;;;;;5052605;28;20044;-59
2023/07/04 06:18:28;;;;;;;6.25;2.03;;;14.80;99.90;;;;;;5050622;28;20075;-60
2023/07/04 06:21:04;;;;;;;5.68;2.13;;;14.80;99.90;;;;;;5049805;28;20065;-59
2023/07/04 06:23:30;;;;;;;6.15;2.10;;;15.00;99.90;;;;;;5051866;28;20037;-59
2023/07/04 06:25:56;;;;;;;5.63;2.10;;;15.00;99.90;;;;;;5051122;28;20448;-59
2023/07/04 06:28:22;;;;;;;5.93;2.30;;;15.00;99.90;;;;;;5042084;28;20044;-60
2023/07/04 06:30:48;;;;;;;5.20;2.00;;;15.10;99.90;;;;;;5050628;28;20037;-59
2023/07/04 06:33:13;;;;;;;8.70;2.40;;;15.20;99.90;;;;;;5051007;28;20044;-59
2023/07/04 06:35:42;;;;;;;6.05;2.00;;;15.20;99.90;;;;;;5050846;28;20040;-59
2023/07/04 06:38:11;;;;;;;5.03;1.77;;;15.30;99.90;;;;;;5053684;28;20406;-60
2023/07/04 06:40:37;;;;;;;8.70;2.17;;;15.40;99.90;;;;;;5048710;28;20037;-59
2023/07/04 06:43:04;;;;;;;7.07;2.17;;;15.60;99.90;;;;;;5052131;28;20044;-59
2023/07/04 06:45:32;;;;;;;4.68;2.40;;;15.80;99.90;;;;;;5051715;28;20041;-59
2023/07/04 06:47:58;;;;;;;5.35;2.35;;;16.10;99.90;;;;;;5047735;28;20113;-62
2023/07/04 06:50:24;;;;;;;5.43;1.85;;;16.30;99.90;;;;;;5038032;28;20037;-63
2023/07/04 06:52:50;;;;;;;6.28;1.80;;;16.30;99.90;;;;;;5045398;28;20372;-63
2023/07/04 06:55:16;;;;;;;8.13;2.10;;;16.30;99.90;;;;;;5046650;28;20037;-63
2023/07/04 06:57:42;;;;;;;4.80;1.83;;;16.30;99.90;;;;;;5041941;28;20120;-63
2023/07/04 07:00:09;;;;;;;7.03;1.90;;;16.30;99.90;;;;;;5046406;28;20045;-62
2023/07/04 07:02:34;;;;;;;3.80;1.65;;;16.40;99.90;;;;;;5044843;28;20062;-64
2023/07/04 07:05:00;;;;;;;5.05;1.67;;;16.50;99.90;;;;;;5046944;28;20029;-63
2023/07/04 07:07:26;;;;;;;6.32;2.05;;;16.50;99.90;;;;;;5050409;28;20043;-63
2023/07/04 07:09:51;;;;;;;4.10;1.70;;;16.50;99.90;;;;;;5049524;28;20554;-63
2023/07/04 07:12:17;;;;;;;5.40;1.63;;;16.50;99.90;;;;;;5045190;28;20135;-63
2023/07/04 07:14:43;;;;;;;4.95;1.48;;;16.60;99.90;;;;;;5045304;28;20414;-62
2023/07/04 07:17:08;;;;;;;4.18;1.60;;;16.60;99.90;;;;;;5044175;28;20037;-63
2023/07/04 07:19:34;;;;;;;7.60;1.80;;;16.80;99.90;;;;;;5045398;28;20521;-63
2023/07/04 07:22:00;;;;;;;6.72;1.73;;;17.00;99.90;;;;;;5049591;28;20036;-62
2023/07/04 07:24:29;;;;;;;7.80;2.35;;;17.10;99.90;;;;;;5044912;28;20502;-62
2023/07/04 07:26:56;;;;;;;4.97;1.83;;;17.30;99.90;;;;;;5048729;28;20032;-62
2023/07/04 07:29:22;;;;;;;6.55;2.25;;;17.50;99.90;;;;;;5050068;28;20116;-63
2023/07/04 07:31:50;;;;;;;5.80;1.73;;;17.60;99.90;;;;;;5046079;28;20554;-63
2023/07/04 07:34:17;;;;;;;8.75;1.80;;;17.80;99.90;;;;;;5049787;28;20121;-63
2023/07/04 07:36:44;;;;;;;6.45;1.70;;;18.00;99.90;;;;;;5040395;28;20050;-63
2023/07/04 07:39:12;;;;;;;9.00;2.05;;;18.10;99.90;;;;;;5046392;28;20441;-63
2023/07/04 07:41:40;;;;;;;5.72;1.77;;;18.10;99.90;;;;;;5046575;28;20056;-62
2023/07/04 07:44:07;;;;;;;6.68;1.77;;;18.20;99.90;;;;;;5048579;28;20047;-62
2023/07/04 07:46:33;;;;;;;6.53;2.00;;;18.30;99.90;;;;;;5050931;28;20548;-63
2023/07/04 07:48:59;;;;;;;6.43;1.77;;;18.50;99.90;;;;;;5052436;28;20036;-63
2023/07/04 07:51:26;;;;;;;5.13;1.65;;;18.70;99.90;;;;;;5052785;28;20052;-63
2023/07/04 07:53:55;;;;;;;4.25;1.73;;;18.80;99.90;;;;;;5054864;28;20037;-62
2023/07/04 07:56:23;;;;;;;6.88;1.90;;;18.90;99.90;;;;;;5037529;28;20067;-63
2023/07/04 07:58:49;;;;;;;4.70;1.50;;;19.10;99.90;;;;;;5053315;28;20090;-63
2023/07/04 08:01:17;;;;;;;7.63;1.55;;;19.10;99.90;;;;;;5051384;28;20033;-63
2023/07/04 08:03:43;;;;;;;7.82;1.63;;;19.00;99.90;;;;;;5050907;28;20040;-63
2023/07/04 08:06:20;;;;;;;5.95;1.83;;;18.90;99.90;;;;;;5052038;28;20044;-63
2023/07/04 08:08:45;;;;;;;6.15;1.83;;;18.60;99.90;;;;;;5052012;28;20029;-63
2023/07/04 08:11:14;;;;;;;7.47;1.67;;;18.50;99.90;;;;;;5053988;28;20495;-63
2023/07/04 08:13:40;;;;;;;5.30;1.88;;;18.30;99.90;;;;;;5053577;28;20079;-63
2023/07/04 08:16:06;;;;;;;8.35;1.90;;;18.20;99.90;;;;;;5049729;28;20121;-64
2023/07/04 08:18:31;;;;;;;6.05;1.88;;;18.10;99.90;;;;;;5048359;28;20468;-64
2023/07/04 08:20:59;;;;;;;5.28;1.55;;;18.00;99.90;;;;;;5048670;28;20040;-64
2023/07/04 08:23:25;;;;;;;5.90;1.90;;;17.90;99.90;;;;;;5052717;28;20068;-64
2023/07/04 08:25:51;;;;;;;8.05;2.10;;;18.00;99.90;;;;;;5053468;28;20105;-64
2023/07/04 08:28:18;;;;;;;7.18;2.15;;;18.10;99.90;;;;;;5062456;28;20493;-64
2023/07/04 08:30:43;;;;;;;7.18;1.90;;;18.10;99.90;;;;;;5062430;28;20087;-64
2023/07/04 08:33:09;;;;;;;7.97;2.13;;;18.40;99.90;;;;;;5074006;28;20056;-63
2023/07/04 08:35:35;;;;;;;8.52;1.80;;;18.60;99.90;;;;;;5058201;28;20075;-64
2023/07/04 08:38:00;;;;;;;7.57;1.88;;;18.80;99.90;;;;;;5048955;28;20184;-64
2023/07/04 08:40:26;;;;;;;12.35;2.20;;;19.00;99.90;;;;;;5053804;28;20498;-64
2023/07/04 08:42:52;;;;;;;11.05;2.00;;;19.10;99.90;;;;;;5053739;28;20037;-64
2023/07/04 08:45:24;;;;;;;6.13;2.03;;;19.10;99.90;;;;;;5053929;28;20517;-64
2023/07/04 08:47:51;;;;;;;4.70;2.00;;;19.10;99.90;;;;;;5053121;28;20037;-64
2023/07/04 08:50:26;;;;;;;8.02;2.15;;;19.10;99.90;;;;;;5047014;28;20083;-63
2023/07/04 08:53:21;;;;;;;6.65;2.08;;;19.00;99.90;;;;;;5044095;28;20052;-63
2023/07/04 08:56:09;;;;;;;12.20;2.85;;;18.90;99.90;;;;;;5037398;28;20088;-64
2023/07/04 08:58:46;;;;;;;5.97;1.98;;;18.80;99.90;;;;;;5050749;28;20037;-64
2023/07/04 09:01:18;;;;;;;8.90;2.40;;;18.60;99.90;;;;;;5034419;28;20073;-64
2023/07/04 09:04:01;;;;;;;6.28;1.75;;;18.50;99.90;;;;;;5051938;28;20052;-64
2023/07/04 09:06:34;;;;;;;7.38;2.30;;;18.40;99.90;;;;;;5046520;28;20569;-64
2023/07/04 09:09:16;;;;;;;9.20;2.88;;;18.30;99.90;;;;;;5050480;28;20087;-64
2023/07/04 09:11:42;;;;;;;5.85;2.20;;;18.20;99.90;;;;;;5053921;28;20033;-64
2023/07/04 09:14:23;;;;;;;10.57;2.05;;;17.90;99.90;;;;;;5049422;28;20395;-64
2023/07/04 09:16:51;;;;;;;9.45;2.75;;;17.90;99.90;;;;;;5053336;28;20037;-64
2023/07/04 09:19:19;;;;;;;9.77;2.03;;;17.80;99.90;;;;;;5052370;28;20075;-64
2023/07/04 09:21:45;;;;;;;8.10;2.28;;;17.60;99.90;;;;;;5039376;28;20056;-64
2023/07/04 09:24:11;;;;;;;13.80;2.92;;;17.60;99.90;;;;;;5038545;28;20605;-60
2023/07/04 09:26:52;;;;;;;11.27;2.50;;;17.40;99.90;;;;;;5049845;28;20108;-60
2023/07/04 09:29:21;;;;;;;10.48;2.13;;;17.20;99.90;;;;;;5042414;28;20060;-60
2023/07/04 09:31:55;;;;;;;10.15;2.65;;;16.90;99.90;;;;;;5046403;28;20044;-60
2023/07/04 09:34:28;;;;;;;11.35;2.45;;;16.80;99.90;;;;;;5042674;28;20041;-60
2023/07/04 09:36:54;;;;;;;6.05;2.00;;;16.90;99.90;;;;;;5044782;28;20402;-60
2023/07/04 09:39:20;;;;;;;12.43;2.83;;;17.00;99.90;;;;;;5051208;28;20040;-60
2023/07/04 09:41:57;;;;;;;11.10;2.40;;;17.20;99.90;;;;;;5049235;28;20044;-60
2023/07/04 09:44:28;;;;;;;11.38;2.38;;;17.40;99.90;;;;;;5047854;28;20082;-60
2023/07/04 09:46:56;;;;;;;9.57;2.22;;;17.60;99.90;;;;;;5047085;28;20078;-60
2023/07/04 09:49:31;;;;;;;6.85;2.00;;;17.60;99.90;;;;;;5043849;28;20423;-59
2023/07/04 09:52:23;;;;;;;8.82;2.20;;;17.70;99.90;;;;;;5045712;28;20041;-59
2023/07/04 09:55:23;;;;;;;9.00;1.95;;;18.00;99.90;;;;;;5046985;28;20091;-59
2023/07/04 09:57:48;;;;;;;7.88;1.80;;;18.20;99.90;;;;;;5040278;28;20052;-60
2023/07/04 10:00:16;;;;;;;4.70;1.40;;;18.40;99.90;;;;;;5047942;28;20116;-60
2023/07/04 10:02:43;;;;;;;6.97;1.88;;;18.70;99.90;;;;;;5045549;28;20041;-59
2023/07/04 10:05:10;;;;;;;6.35;1.92;;;18.90;99.90;;;;;;5040109;28;20041;-59
2023/07/04 10:07:37;;;;;;;4.78;1.65;;;19.10;99.90;;;;;;5045446;28;20047;-60
2023/07/04 10:10:07;;;;;;;5.85;2.60;;;19.30;99.90;;;;;;5047092;28;20048;-60
2023/07/04 10:12:44;;;;;;;7.30;1.70;;;19.30;99.90;;;;;;5051214;28;20040;-60
2023/07/04 10:15:18;;;;;;;9.30;1.85;;;19.30;99.90;;;;;;5047295;28;20102;-59
2023/07/04 10:17:44;;;;;;;5.85;2.05;;;19.50;99.90;;;;;;5043878;28;20135;-60
2023/07/04 10:20:13;;;;;;;10.30;2.45;;;19.70;99.90;;;;;;5048606;28;20124;-60
2023/07/04 10:22:52;;;;;;;9.20;2.20;;;19.90;99.90;;;;;;5048225;28;20094;-61
2023/07/04 10:25:25;;;;;;;11.40;2.25;;;19.90;99.90;;;;;;5040683;28;20071;-60
2023/07/04 10:27:58;;;;;;;6.70;2.38;;;19.80;99.90;;;;;;5051283;28;20047;-60
2023/07/04 10:30:29;;;;;;;7.57;2.65;;;19.50;99.90;;;;;;5048564;28;20039;-60
2023/07/04 10:33:14;;;;;;;9.00;2.60;;;19.20;99.90;;;;;;5046721;28;20043;-60
2023/07/04 10:35:43;;;;;;;8.20;2.15;;;18.80;99.90;;;;;;5044233;28;20036;-60
2023/07/04 10:38:20;;;;;;;8.10;2.88;;;18.60;99.90;;;;;;5053110;28;20044;-60
2023/07/04 10:40:46;;;;;;;8.70;2.72;;;18.40;99.90;;;;;;5047626;28;20033;-60
2023/07/04 10:43:26;;;;;;;7.10;2.25;;;18.30;99.90;;;;;;5050339;28;20037;-60
2023/07/04 10:45:53;;;;;;;8.83;2.20;;;18.30;99.90;;;;;;5048586;28;20037;-61
2023/07/04 10:48:21;;;;;;;10.75;2.60;;;18.30;99.90;;;;;;5047380;28;20338;-60
2023/07/04 10:50:57;;;;;;;7.10;2.35;;;18.40;99.90;;;;;;5058500;28;20120;-60
2023/07/04 10:53:23;;;;;;;7.75;2.30;;;18.30;99.90;;;;;;5059084;28;20048;-60
2023/07/04 10:55:56;;;;;;;8.13;2.35;;;18.20;99.90;;;;;;5048386;28;20033;-60
2023/07/04 10:58:25;;;;;;;9.63;2.38;;;18.20;99.90;;;;;;5050710;28;20041;-60
2023/07/04 11:01:03;;;;;;;8.88;2.60;;;18.20;99.90;;;;;;5068717;28;20051;-61
2023/07/04 11:03:57;;;;;;;11.52;2.85;;;18.20;99.90;;;;;;5054964;28;20036;-60
2023/07/04 11:06:43;;;;;;;11.57;3.15;;;18.20;99.90;;;;;;5048158;28;20032;-60
2023/07/04 11:09:15;;;;;;;7.53;2.50;;;18.20;99.90;;;;;;5040434;28;20045;-60
2023/07/04 11:11:47;;;;;;;9.30;2.22;;;18.10;99.90;;;;;;5045168;28;20033;-60
2023/07/04 11:14:24;;;;;;;8.18;2.30;;;18.20;99.90;;;;;;5058693;28;20032;-60
2023/07/04 11:16:55;;;;;;;10.13;2.22;;;18.10;99.90;;;;;;5048650;28;20036;-60
2023/07/04 11:19:25;;;;;;;9.10;2.63;;;18.20;99.90;;;;;;5051036;28;20033;-60
2023/07/04 11:22:05;;;;;;;10.57;2.42;;;18.20;99.90;;;;;;5037656;28;20506;-60
2023/07/04 11:24:46;;;;;;;8.38;2.30;;;18.20;99.90;;;;;;5054300;28;20487;-60
2023/07/04 11:27:17;;;;;;;10.38;2.58;;;18.40;99.90;;;;;;5057808;28;20086;-60
2023/07/04 11:29:56;;;;;;;8.43;2.22;;;18.40;99.90;;;;;;5061036;28;20402;-60
2023/07/04 11:32:37;;;;;;;9.40;2.50;;;18.50;99.90;;;;;;5049656;28;20055;-60
2023/07/04 11:35:06;;;;;;;6.30;2.13;;;18.60;99.90;;;;;;5065007;28;20513;-60
2023/07/04 11:37:45;;;;;;;9.32;2.60;;;18.60;99.90;;;;;;5051975;28;20157;-60
2023/07/04 11:40:42;;;;;;;9.90;2.47;;;18.70;99.90;;;;;;5054129;28;20037;-60
2023/07/04 11:43:21;;;;;;;11.20;2.58;;;18.70;99.90;;;;;;5054282;28;20037;-60
2023/07/04 11:45:48;;;;;;;7.32;2.00;;;18.70;99.90;;;;;;5050142;28;20495;-60
2023/07/04 11:48:18;;;;;;;9.05;2.50;;;18.60;99.90;;;;;;5051135;28;20060;-60
2023/07/04 11:50:47;;;;;;;9.85;2.35;;;18.60;99.90;;;;;;5047423;28;20029;-60
2023/07/04 11:53:19;;;;;;;9.90;2.65;;;18.50;99.90;;;;;;5040298;28;20091;-60
2023/07/04 11:56:03;;;;;;;15.13;2.47;;;18.50;99.90;;;;;;5049315;28;20119;-60
2023/07/04 11:58:28;;;;;;;11.13;2.53;;;18.40;99.90;;;;;;5040157;28;20448;-60
2023/07/04 12:00:57;;;;;;;6.75;2.50;;;18.40;99.90;;;;;;5050689;28;20049;-60
2023/07/04 12:03:22;;;;;;;9.43;2.15;;;18.30;99.90;;;;;;5052993;28;20044;-60
2023/07/04 12:05:52;;;;;;;9.05;2.13;;;18.40;99.90;;;;;;5050624;28;20033;-60
2023/07/04 12:08:49;;;;;;;9.43;2.23;;;18.40;99.90;;;;;;5050085;28;20036;-60
2023/07/04 12:11:22;;;;;;;10.27;2.13;;;18.40;99.90;;;;;;5050988;28;20405;-60
2023/07/04 12:13:50;;;;;;;8.00;2.17;;;18.40;99.90;;;;;;5060641;28;20045;-60
2023/07/04 12:16:20;;;;;;;10.55;2.80;;;18.40;99.90;;;;;;5048482;28;20123;-60
2023/07/04 12:18:46;;;;;;;6.95;2.47;;;18.60;99.90;;;;;;5040588;28;20037;-59
2023/07/04 12:21:17;;;;;;;7.20;2.13;;;18.90;99.90;;;;;;5050081;28;20041;-59
2023/07/04 12:23:45;;;;;;;9.65;2.28;;;19.30;99.90;;;;;;5049942;28;20437;-60
2023/07/04 12:26:18;;;;;;;7.03;1.98;;;19.60;99.90;;;;;;5056264;28;20043;-60
2023/07/04 12:28:46;;;;;;;6.78;2.13;;;19.80;99.90;;;;;;5058344;28;20037;-60
2023/07/04 12:31:14;;;;;;;10.15;2.00;;;19.70;99.90;;;;;;5063079;28;20048;-60
2023/07/04 12:33:44;;;;;;;6.05;2.10;;;19.60;99.90;;;;;;5051009;28;20041;-60
2023/07/04 12:36:15;;;;;;;8.02;1.60;;;19.40;99.90;;;;;;5045375;28;20037;-59
2023/07/04 12:38:45;;;;;;;6.38;1.67;;;19.40;99.90;;;;;;5052240;28;20048;-59
2023/07/04 12:41:15;;;;;;;6.85;1.75;;;19.40;99.90;;;;;;5056505;28;20044;-60
2023/07/04 12:43:40;;;;;;;7.30;1.97;;;19.50;99.90;;;;;;5048528;28;20037;-59
2023/07/04 12:46:11;;;;;;;11.27;2.20;;;19.50;99.90;;;;;;5052442;28;20059;-60
2023/07/04 12:48:37;;;;;;;7.20;2.75;;;19.50;99.90;;;;;;5049286;28;20085;-60
2023/07/04 12:51:07;;;;;;;6.70;2.13;;;19.50;99.90;;;;;;5049718;28;20037;-59
2023/07/04 12:53:33;;;;;;;5.82;1.70;;;19.60;99.90;;;;;;5052046;28;20064;-60